Dear users,

Today (Monday, 6 November 2017), the phones of forecaster in MWO Zagreb 01 6259 240 and 224 will not be available from 21:00 until 23:00 due to the works. During this period you can get meteorological consultations at 099 6053931. 

Sorry for the inconvenience.

Poštovani korisnici,

Danas (ponedjeljak 6.11.2017) u razdoblju od 21:00 do 23:00 sata neće biti dostupni telefoni dežurnog prognostičara u SMB-u Zagreb 01 6259 240 i 224 zbog radova. U tom razdoblju meteorloške konzultacije možete dobiti na broju 099 6053931. Oprostite na smetnji.

Dear users,

Today (Monday, 6 November 2017), the phones of forecaster in MWO Zagreb 01 6259 240 and 224 will not be available from 21:00 until 23:00 due to the works. During this period you can get meteorological consultations at 099 6053931. 

Sorry for the inconvenience.

Poštovani korisnici,

Danas (ponedjeljak 6.11.2017) u razdoblju od 21:00 do 23:00 sata neće biti dostupni telefoni dežurnog prognostičara u SMB-u Zagreb 01 6259 240 i 224 zbog radova. U tom razdoblju meteorloške konzultacije možete dobiti na broju 099 6053931. Oprostite na smetnji.

METAR

METAR LDZA 232330Z 24006KT CAVOK 05/03 Q1018 NOSIG =
METAR LDSP 232330Z AUTO 00000KT 9999 SCT026/// OVC076/// 10/08 Q1022=
METAR LDDU 232330Z 05006KT 9999 BKN060 12/08 Q1022 =
METAR LDZD 232330Z 12004KT 7000 FEW040 BKN074 10/09 Q1022 =
METAR LDPL 232330Z AUTO 06003KT 030V090 7000 NSC 11/10 Q1021=
METAR COR LDOS 232330Z 17007KT CAVOK 09/06 Q1019=
METAR LDRI 232330Z 11003KT 9999 SCT040 10/09 Q1021=

TAF

TAF LDZA 232325Z 2400/2500 VRB02KT CAVOK
                 TX15/2413Z TN03/2405Z
           BECMG 2406/2408 23006KT=
TAF LDSP 232325Z 2400/2500 VRB02KT 9999 SCT035
                 TX15/2412Z TN09/2405Z=
TAF LDDU 232325Z 2400/2500 08006KT 9999 BKN050
                 TX14/2412Z TN10/2403Z
           TEMPO 2413/2416 28006KT=
TAF LDZD 232325Z 2400/2500 12005KT 6000 BKN040
                 TX14/2412Z TN07/2402Z
    PROB30 TEMPO 2412/2417 RA
           BECMG 2418/2420 =
TAF LDPL 232325Z 2400/2500 VRB02KT 8000 BKN030
                 TX15/2412Z TN07/2405Z
    PROB30 TEMPO 2400/2408 3000 BR BKN010=
TAF LDOS 232325Z 2400/2500 18008KT CAVOK
                 TX14/2413Z TN05/2405Z
           BECMG 2418/2420 12008KT=
TAF LDRI 232325Z 2400/2500 07005KT 9999 BKN030
                 TX16/2413Z TN09/2405Z
    PROB30 TEMPO 2420/2500 RA=

SIGMET

AIRMET

LDZO AIRMET 11 VALID 232100/240100 LDZA-
LDZO ZAGREB FIR MT OBSC FCST WI N4539 E01437 - N4224 E01832 - N4507
E01404 - N4528 E01403 - N4539 E01437 ABV FL020 STNR NC=

Ukoliko se brzina i smjer vjetra ne mogu odrediti zbog privremenog kvara sustava/indikatora,
informacija o vjetru u METAR izvješću bit će prikazana kao "/////KT".

 

         

      Politika MET podataka      

 

Disclaimer

 

In case of temporary system/sensor failure, wind speed and direction data will be represented as "/////KT" in METAR report.